Time;durP1;ratioP1;P1;durP2;ratioP2;P2;SDS_P1;SDS_P2;PMS_P1;PMS_P2;Temp;Humidity;BMP_temperature;BMP_pressure;BME280_temperature;BME280_humidity;BME280_pressure;Samples;Min_cycle;Max_cycle;Signal;HPM_P1;HPM_P2
2022/04/14 00:02:17;;;;;;;13.45;7.60;;;;;;;20.03;50.22;102105.19;5043648;28;20332;-37
2022/04/14 00:04:43;;;;;;;11.90;7.25;;;;;;;20.01;50.46;102100.94;5045211;28;20049;-38
2022/04/14 00:07:10;;;;;;;12.65;7.90;;;;;;;20.01;50.55;102099.09;5045278;28;20055;-37
2022/04/14 00:09:36;;;;;;;10.77;7.60;;;;;;;19.99;50.13;102093.00;5042806;28;20055;-37
2022/04/14 00:12:03;;;;;;;11.32;7.15;;;;;;;19.99;50.70;102100.22;5046222;28;20053;-38
2022/04/14 00:14:30;;;;;;;11.50;7.35;;;;;;;19.99;50.04;102098.38;5046524;28;20049;-37
2022/04/14 00:16:56;;;;;;;12.27;7.38;;;;;;;19.99;49.93;102092.16;5044074;28;20057;-38
2022/04/14 00:19:23;;;;;;;11.05;7.00;;;;;;;19.97;50.47;102095.81;5036034;28;20699;-37
2022/04/14 00:21:49;;;;;;;12.77;7.35;;;;;;;19.97;50.30;102086.91;5029255;28;20538;-38
2022/04/14 00:24:16;;;;;;;11.68;7.75;;;;;;;19.95;50.81;102083.50;5027492;28;20051;-38
2022/04/14 00:26:44;;;;;;;15.77;8.55;;;;;;;19.94;50.18;102088.03;5027703;28;20059;-37
2022/04/14 00:29:11;;;;;;;11.45;7.28;;;;;;;19.95;50.69;102096.97;5029460;28;20052;-37
2022/04/14 00:31:38;;;;;;;10.95;6.88;;;;;;;19.93;50.45;102094.38;5029261;28;20052;-37
2022/04/14 00:34:05;;;;;;;12.07;7.35;;;;;;;19.92;50.19;102083.75;5028432;28;20045;-38
2022/04/14 00:36:33;;;;;;;11.10;6.47;;;;;;;19.90;50.53;102080.34;5026604;28;20053;-38
2022/04/14 00:38:59;;;;;;;10.98;7.15;;;;;;;19.90;50.26;102085.72;5026862;28;20331;-37
2022/04/14 00:41:27;;;;;;;11.63;6.72;;;;;;;19.90;50.35;102083.03;5025047;28;20053;-37
2022/04/14 00:43:54;;;;;;;10.68;6.70;;;;;;;19.88;50.55;102076.94;5029089;28;20192;-37
2022/04/14 00:46:22;;;;;;;10.15;6.20;;;;;;;19.88;50.74;102082.34;5026430;28;20064;-37
2022/04/14 00:48:52;;;;;;;10.60;6.68;;;;;;;19.88;50.59;102071.56;5029300;28;20382;-37
2022/04/14 00:51:18;;;;;;;11.43;6.72;;;;;;;19.87;50.71;102077.94;5029030;28;20049;-37
2022/04/14 00:53:45;;;;;;;12.40;6.88;;;;;;;19.85;51.06;102075.38;5029576;28;20148;-37
2022/04/14 00:56:11;;;;;;;8.20;5.90;;;;;;;19.86;50.98;102073.53;5026354;28;20047;-37
2022/04/14 00:58:40;;;;;;;9.23;6.20;;;;;;;19.85;50.81;102070.00;5029640;28;20167;-37
2022/04/14 01:01:07;;;;;;;12.57;6.60;;;;;;;19.83;50.46;102069.28;5025549;28;20053;-38
2022/04/14 01:03:35;;;;;;;10.65;6.68;;;;;;;19.83;50.76;102068.44;5031045;28;20045;-37
2022/04/14 01:06:03;;;;;;;8.35;6.07;;;;;;;19.83;50.73;102068.44;5028612;28;20129;-37
2022/04/14 01:08:34;;;;;;;10.27;6.63;;;;;;;19.82;50.58;102072.09;5029200;28;20037;-37
2022/04/14 01:11:02;;;;;;;10.63;6.57;;;;;;;19.81;51.00;102068.56;5028431;28;20045;-37
2022/04/14 01:13:28;;;;;;;10.45;6.30;;;;;;;19.79;50.98;102077.78;5031310;28;20033;-37
2022/04/14 01:15:59;;;;;;;10.32;6.03;;;;;;;19.78;51.16;102068.84;5027371;28;20069;-37
2022/04/14 01:18:27;;;;;;;9.50;5.82;;;;;;;19.79;50.54;102077.78;5029842;28;20043;-37
2022/04/14 01:20:53;;;;;;;6.85;5.20;;;;;;;19.77;50.58;102075.19;5043005;28;20669;-37
2022/04/14 01:23:33;;;;;;;10.20;5.35;;;;;;;19.76;50.70;102076.19;5045153;28;20056;-37
2022/04/14 01:26:00;;;;;;;8.57;5.60;;;;;;;19.75;50.86;102081.72;5043250;28;20049;-37
2022/04/14 01:28:26;;;;;;;10.32;6.40;;;;;;;19.76;50.95;102076.19;5045566;28;20040;-37
2022/04/14 01:30:53;;;;;;;8.80;6.03;;;;;;;19.75;50.67;102089.78;5042821;28;20458;-37
2022/04/14 01:33:19;;;;;;;8.07;5.30;;;;;;;19.73;50.70;102093.44;5047113;28;20044;-37
2022/04/14 01:35:46;;;;;;;8.65;5.15;;;;;;;19.73;50.75;102096.13;5040991;28;20395;-37
2022/04/14 01:38:13;;;;;;;8.13;5.57;;;;;;;19.72;50.81;102094.44;5043874;28;20045;-37
2022/04/14 01:40:40;;;;;;;8.70;5.75;;;;;;;19.71;50.88;102090.06;5026440;28;20108;-37
2022/04/14 01:43:06;;;;;;;8.75;5.80;;;;;;;19.72;50.74;102097.13;5043800;28;20048;-37
2022/04/14 01:45:33;;;;;;;8.23;4.97;;;;;;;19.70;50.81;102099.13;5042711;28;20067;-37
2022/04/14 01:48:00;;;;;;;8.88;5.57;;;;;;;19.70;51.15;102099.13;5040933;28;20337;-37
2022/04/14 01:50:26;;;;;;;7.00;4.63;;;;;;;19.69;51.15;102100.09;5042916;28;20036;-37
2022/04/14 01:52:53;;;;;;;7.65;5.00;;;;;;;19.68;51.35;102108.28;5046810;28;20056;-38
2022/04/14 01:55:19;;;;;;;8.70;5.10;;;;;;;19.67;50.63;102102.06;5048209;28;20377;-37
2022/04/14 01:57:46;;;;;;;8.20;5.40;;;;;;;19.66;51.38;102112.97;5047075;28;20049;-37
2022/04/14 02:00:15;;;;;;;7.45;4.88;;;;;;;19.65;51.17;102106.72;5046083;28;20063;-37
2022/04/14 02:02:42;;;;;;;8.23;5.28;;;;;;;19.64;50.81;102106.84;5047682;28;20120;-37
2022/04/14 02:05:09;;;;;;;8.57;5.40;;;;;;;19.63;51.47;102103.31;5047437;28;20066;-37
2022/04/14 02:07:35;;;;;;;9.13;5.03;;;;;;;19.62;51.49;102111.53;5047707;28;20049;-37
2022/04/14 02:10:03;;;;;;;7.93;5.22;;;;;;;19.61;50.84;102116.03;5047051;28;20037;-37
2022/04/14 02:12:29;;;;;;;8.00;4.93;;;;;;;19.61;51.34;102110.66;5048222;28;20791;-37
2022/04/14 02:14:56;;;;;;;7.95;5.50;;;;;;;19.60;51.16;102114.31;5045341;28;20155;-37
2022/04/14 02:17:22;;;;;;;7.05;4.38;;;;;;;19.59;51.27;102111.75;5051156;28;20053;-37
2022/04/14 02:19:49;;;;;;;7.20;5.13;;;;;;;19.59;51.56;102118.00;5050286;28;20049;-37
2022/04/14 02:22:15;;;;;;;8.55;4.90;;;;;;;19.58;51.40;102116.28;5048819;28;20396;-37
2022/04/14 02:24:42;;;;;;;8.30;4.82;;;;;;;19.56;50.97;102112.88;5048406;28;20048;-38
2022/04/14 02:27:09;;;;;;;9.38;5.72;;;;;;;19.55;51.47;102110.31;5048787;28;20079;-38
2022/04/14 02:29:35;;;;;;;8.27;4.45;;;;;;;19.55;51.41;102110.31;5047977;28;20438;-37
2022/04/14 02:32:02;;;;;;;8.98;4.97;;;;;;;19.53;51.38;102113.13;5046893;28;20061;-38
2022/04/14 02:34:28;;;;;;;8.60;4.95;;;;;;;19.53;50.95;102107.75;5047437;28;20120;-38
2022/04/14 02:36:55;;;;;;;7.35;4.88;;;;;;;19.52;51.03;102108.75;5048553;28;20124;-38
2022/04/14 02:39:21;;;;;;;7.70;4.75;;;;;;;19.51;51.35;102104.34;5045878;28;20132;-38
2022/04/14 02:41:48;;;;;;;7.78;4.68;;;;;;;19.49;50.96;102111.69;5046597;28;20140;-38
2022/04/14 02:44:15;;;;;;;14.75;5.10;;;;;;;19.51;50.99;102111.56;5045198;28;20128;-37
2022/04/14 02:46:41;;;;;;;6.95;4.55;;;;;;;19.49;50.92;102114.38;5046628;28;20037;-35
2022/04/14 02:49:08;;;;;;;8.10;4.68;;;;;;;19.46;51.63;102106.59;5046823;28;20037;-38
2022/04/14 02:51:35;;;;;;;6.32;4.35;;;;;;;19.47;51.43;102114.53;5046649;28;20053;-38
2022/04/14 02:54:01;;;;;;;7.10;4.40;;;;;;;19.45;50.91;102104.88;5047981;28;20127;-38
2022/04/14 02:56:28;;;;;;;7.13;4.70;;;;;;;19.44;50.95;102108.56;5046586;28;20044;-38
2022/04/14 02:58:54;;;;;;;8.65;4.95;;;;;;;19.43;51.57;102110.38;5043737;28;20048;-37
2022/04/14 03:01:21;;;;;;;8.30;5.55;;;;;;;19.42;51.18;102111.38;5044499;28;20448;-37
2022/04/14 03:03:48;;;;;;;6.35;4.72;;;;;;;19.41;51.43;102109.66;5046037;28;20072;-37
2022/04/14 03:06:14;;;;;;;5.93;4.65;;;;;;;19.40;51.00;102112.50;5045155;28;20074;-37
2022/04/14 03:08:41;;;;;;;8.02;4.85;;;;;;;19.39;51.51;102114.31;5045376;28;20052;-38
2022/04/14 03:11:08;;;;;;;8.98;5.22;;;;;;;19.40;51.38;102110.66;5046644;28;20131;-36
2022/04/14 03:13:34;;;;;;;7.15;4.70;;;;;;;19.38;51.48;102109.94;5047033;28;20063;-37
2022/04/14 03:16:01;;;;;;;6.30;4.38;;;;;;;19.38;51.63;102119.84;5043205;28;20041;-36
2022/04/14 03:18:28;;;;;;;7.90;4.93;;;;;;;19.37;50.96;102121.66;5046372;28;20424;-36
2022/04/14 03:20:54;;;;;;;6.32;4.43;;;;;;;19.35;51.34;102120.09;5044732;28;20048;-36
2022/04/14 03:23:23;;;;;;;6.43;4.63;;;;;;;19.36;51.29;102119.97;5046014;28;20143;-38
2022/04/14 03:25:49;;;;;;;6.97;4.68;;;;;;;19.34;51.13;102113.03;5046228;28;20051;-38
2022/04/14 03:28:16;;;;;;;10.02;5.43;;;;;;;19.32;51.46;102115.81;5047328;28;20179;-38
2022/04/14 03:30:42;;;;;;;7.35;4.88;;;;;;;19.33;51.37;102116.69;5044450;28;20059;-38
2022/04/14 03:33:09;;;;;;;6.40;4.40;;;;;;;19.32;51.76;102118.53;5047887;28;20049;-38
2022/04/14 03:35:35;;;;;;;8.95;5.38;;;;;;;19.31;51.44;102119.50;5044137;28;20060;-38
2022/04/14 03:38:02;;;;;;;7.43;4.82;;;;;;;19.30;51.46;102120.50;5045326;28;20139;-38
2022/04/14 03:40:48;;;;;;;7.65;4.70;;;;;;;19.30;51.74;102131.25;5043624;28;20049;-38
2022/04/14 03:43:16;;;;;;;7.30;4.07;;;;;;;19.29;51.97;102132.22;5045642;28;20045;-38
2022/04/14 03:45:42;;;;;;;6.60;4.20;;;;;;;19.28;52.03;102130.50;5045672;28;20055;-38
2022/04/14 03:48:09;;;;;;;6.30;4.05;;;;;;;19.28;51.50;102124.28;5045446;28;20055;-38
2022/04/14 03:50:35;;;;;;;7.97;4.38;;;;;;;19.25;51.92;102120.03;5045295;28;20041;-38
2022/04/14 03:53:02;;;;;;;6.65;3.67;;;;;;;19.26;51.50;102127.13;5045664;28;20049;-38
2022/04/14 03:55:29;;;;;;;9.43;4.28;;;;;;;19.24;51.62;102129.06;5044753;28;20092;-38
2022/04/14 03:57:55;;;;;;;6.50;4.20;;;;;;;19.23;51.58;102135.44;5046109;28;20135;-38
2022/04/14 04:00:22;;;;;;;8.00;4.57;;;;;;;19.22;51.81;102121.16;5044814;28;20041;-38
2022/04/14 04:02:49;;;;;;;5.45;3.83;;;;;;;19.21;51.66;102126.63;5047247;28;20428;-38
2022/04/14 04:05:15;;;;;;;7.05;3.83;;;;;;;19.19;51.42;102121.41;5044860;28;20127;-38
2022/04/14 04:07:42;;;;;;;6.72;4.53;;;;;;;19.19;51.40;102115.19;5048909;28;20105;-38
2022/04/14 04:10:09;;;;;;;5.40;4.13;;;;;;;19.19;51.91;102120.56;5049399;28;20047;-38
2022/04/14 04:12:35;;;;;;;17.13;4.60;;;;;;;19.19;52.04;102126.78;5047468;28;20140;-38
2022/04/14 04:15:02;;;;;;;6.75;4.82;;;;;;;19.18;51.43;102119.72;5044186;28;20195;-38
2022/04/14 04:17:28;;;;;;;7.30;5.05;;;;;;;19.18;51.21;102126.94;5045631;28;20132;-38
2022/04/14 04:19:55;;;;;;;6.00;4.15;;;;;;;19.16;51.41;102128.88;5045019;28;20123;-38
2022/04/14 04:22:22;;;;;;;8.30;4.90;;;;;;;19.15;50.86;102119.97;5046373;28;20043;-38
2022/04/14 04:24:50;;;;;;;6.55;4.70;;;;;;;19.15;51.42;102124.47;5044646;28;20048;-38
2022/04/14 04:27:17;;;;;;;7.28;4.63;;;;;;;19.14;51.63;102125.47;5043523;28;20147;-38
2022/04/14 04:29:43;;;;;;;7.40;4.90;;;;;;;19.13;51.13;102126.44;5049900;28;20049;-38
2022/04/14 04:32:10;;;;;;;11.10;5.43;;;;;;;19.12;51.52;102135.50;5050450;28;20132;-38
2022/04/14 04:34:36;;;;;;;9.32;5.35;;;;;;;19.11;51.46;102134.63;5046298;28;20098;-38
2022/04/14 04:37:03;;;;;;;10.25;6.07;;;;;;;19.10;51.56;102141.00;5045575;28;20033;-38
2022/04/14 04:39:30;;;;;;;9.70;5.93;;;;;;;19.09;51.29;102141.97;5052657;28;20047;-38
2022/04/14 04:41:56;;;;;;;7.82;5.63;;;;;;;19.09;51.01;102146.50;5048113;28;20084;-38
2022/04/14 04:44:23;;;;;;;12.18;6.55;;;;;;;19.07;51.50;102141.25;5048862;28;20045;-38
2022/04/14 04:46:49;;;;;;;10.55;6.95;;;;;;;19.07;51.47;102143.94;5049504;28;20051;-38
2022/04/14 04:49:16;;;;;;;13.35;7.50;;;;;;;19.05;51.67;102143.19;5051954;28;20332;-38
2022/04/14 04:51:42;;;;;;;12.55;7.50;;;;;;;19.05;51.33;102153.94;5048777;28;20487;-38
2022/04/14 04:54:09;;;;;;;13.35;7.53;;;;;;;19.05;51.50;102151.25;5050007;28;20483;-38
2022/04/14 04:56:36;;;;;;;14.30;8.68;;;;;;;19.04;51.23;102154.09;5050757;28;20044;-38
2022/04/14 04:59:02;;;;;;;15.30;8.90;;;;;;;19.03;51.78;102157.78;5049040;28;20479;-38
2022/04/14 05:01:29;;;;;;;16.23;9.60;;;;;;;19.03;51.18;102169.38;5048222;28;20133;-38
2022/04/14 05:03:56;;;;;;;15.63;9.68;;;;;;;19.01;51.52;102165.94;5050096;28;20556;-38
2022/04/14 05:06:22;;;;;;;18.50;10.85;;;;;;;19.01;51.34;102163.25;5044936;28;20353;-38
2022/04/14 05:08:49;;;;;;;17.45;11.18;;;;;;;18.99;51.03;102166.06;5050058;28;20132;-38
2022/04/14 05:11:15;;;;;;;21.23;12.18;;;;;;;19.01;51.80;102165.94;5049300;28;20124;-38
2022/04/14 05:13:42;;;;;;;22.73;12.20;;;;;;;18.98;51.38;102164.38;5047376;28;20051;-37
2022/04/14 05:16:09;;;;;;;19.13;11.98;;;;;;;19.01;51.55;102165.09;5050323;28;20045;-37
2022/04/14 05:18:36;;;;;;;19.60;12.50;;;;;;;19.02;51.90;102164.13;5048070;28;20340;-38
2022/04/14 05:21:02;;;;;;;19.23;12.48;;;;;;;19.04;51.07;102168.38;5048852;28;20697;-38
2022/04/14 05:23:29;;;;;;;22.52;13.65;;;;;;;19.05;51.00;102175.44;5050125;28;20037;-37
2022/04/14 05:25:56;;;;;;;21.88;12.73;;;;;;;19.07;50.61;102178.03;5047700;28;20047;-38
2022/04/14 05:28:22;;;;;;;21.67;12.73;;;;;;;19.07;50.55;102184.25;5050763;28;20045;-39
2022/04/14 05:30:50;;;;;;;21.52;13.35;;;;;;;19.08;50.71;102182.41;5050782;28;20053;-38
2022/04/14 05:33:17;;;;;;;20.98;12.98;;;;;;;19.08;50.95;102191.31;5051095;28;20407;-38
2022/04/14 05:35:44;;;;;;;22.00;13.23;;;;;;;19.09;50.64;102186.81;5055640;28;20041;-37
2022/04/14 05:38:11;;;;;;;24.25;13.48;;;;;;;19.09;50.73;102193.03;5051553;28;20133;-38
2022/04/14 05:40:45;;;;;;;21.92;13.75;;;;;;;19.10;50.94;102189.38;5054069;28;20127;-38
2022/04/14 05:43:15;;;;;;;25.08;14.15;;;;;;;19.09;50.90;102195.72;5051768;28;20127;-38
2022/04/14 05:45:47;;;;;;;23.88;13.73;;;;;;;19.11;50.54;102198.28;5054285;28;20147;-38
2022/04/14 05:48:14;;;;;;;23.33;13.80;;;;;;;19.10;50.41;102196.59;5051593;28;20052;-39
2022/04/14 05:50:42;;;;;;;23.38;13.35;;;;;;;19.09;50.47;102195.72;5052340;28;20044;-37
2022/04/14 05:53:08;;;;;;;22.33;13.70;;;;;;;19.10;50.39;102200.13;5055852;28;20056;-38
2022/04/14 05:55:35;;;;;;;22.20;13.68;;;;;;;19.10;50.47;102193.91;5050521;28;20099;-38
2022/04/14 05:58:06;;;;;;;24.40;13.55;;;;;;;19.10;50.90;102200.13;5048411;28;20405;-37
2022/04/14 06:00:34;;;;;;;25.60;14.27;;;;;;;19.10;50.49;102194.75;5049126;28;20049;-37
2022/04/14 06:03:01;;;;;;;21.83;13.90;;;;;;;19.10;50.62;102192.06;5051954;28;20487;-38
2022/04/14 06:05:29;;;;;;;25.70;14.23;;;;;;;19.10;50.33;102197.44;5051565;28;20068;-38
2022/04/14 06:07:55;;;;;;;19.58;12.85;;;;;;;19.11;50.98;102203.66;5053939;28;20103;-39
2022/04/14 06:10:23;;;;;;;25.40;13.65;;;;;;;19.11;50.64;102206.34;5053576;28;20076;-36
2022/04/14 06:12:50;;;;;;;20.23;12.95;;;;;;;19.10;50.09;102186.69;5052098;28;20045;-37
2022/04/14 06:15:17;;;;;;;24.10;14.27;;;;;;;19.10;50.72;102194.75;5051138;28;20124;-37
2022/04/14 06:17:44;;;;;;;23.92;14.10;;;;;;;19.10;50.21;102199.28;5054007;28;20048;-37
2022/04/14 06:20:12;;;;;;;23.00;12.82;;;;;;;19.10;51.02;102202.81;5050740;28;20060;-37
2022/04/14 06:22:43;;;;;;;25.00;13.27;;;;;;;19.11;50.60;102201.81;5052380;28;20127;-37
2022/04/14 06:25:17;;;;;;;21.88;12.55;;;;;;;19.11;50.82;102196.44;5053485;28;20137;-37
2022/04/14 06:27:44;;;;;;;;;;;;;;;19.12;50.47;102206.22;5050076;28;20152;-37
2022/04/14 06:30:13;;;;;;;21.42;13.02;;;;;;;19.16;50.56;102193.38;5048432;28;19916;-37
2022/04/14 06:32:40;;;;;;;21.70;13.45;;;;;;;19.15;50.57;102197.91;5048854;28;20049;-36
2022/04/14 06:35:08;;;;;;;21.42;12.93;;;;;;;19.16;50.22;102193.38;5052510;28;20045;-37
2022/04/14 06:37:35;;;;;;;21.30;13.25;;;;;;;19.17;50.37;102197.75;5049059;28;20119;-36
2022/04/14 06:40:03;;;;;;;20.98;12.85;;;;;;;19.17;50.21;102195.06;5050844;28;20041;-36
2022/04/14 06:42:49;;;;;;;21.08;12.55;;;;;;;19.19;50.10;102209.25;5050635;28;20339;-37
2022/04/14 06:45:16;;;;;;;19.83;11.95;;;;;;;19.21;49.91;102212.66;5050108;28;20091;-37
2022/04/14 06:47:43;;;;;;;22.77;12.80;;;;;;;19.24;50.32;102209.72;5050137;28;20045;-37
2022/04/14 06:50:10;;;;;;;20.15;11.35;;;;;;;19.27;50.23;102217.53;5050971;28;20047;-37
2022/04/14 06:52:38;;;;;;;17.52;11.25;;;;;;;19.31;50.67;102218.13;5052007;28;20156;-37
2022/04/14 06:55:06;;;;;;;17.85;11.38;;;;;;;19.33;50.70;102218.84;5051069;28;20152;-36
2022/04/14 06:57:33;;;;;;;20.95;11.43;;;;;;;19.36;50.49;102213.22;5049120;28;20049;-37
2022/04/14 06:59:59;;;;;;;20.25;11.45;;;;;;;19.37;50.70;102217.59;5049037;28;20057;-37
2022/04/14 07:02:26;;;;;;;17.33;10.98;;;;;;;19.40;50.52;102220.03;5049370;28;20059;-36
2022/04/14 07:04:53;;;;;;;19.33;10.90;;;;;;;19.42;50.44;102220.78;5047945;28;20156;-37
2022/04/14 07:07:20;;;;;;;16.90;10.00;;;;;;;19.43;50.43;102222.47;5052791;28;20048;-37
2022/04/14 07:09:46;;;;;;;17.23;10.57;;;;;;;19.44;49.95;102227.72;5052102;28;20407;-37
2022/04/14 07:12:13;;;;;;;17.95;11.43;;;;;;;19.47;50.24;102223.91;5049919;28;20044;-37
2022/04/14 07:14:40;;;;;;;16.90;9.98;;;;;;;19.48;50.17;102223.78;5051123;28;20049;-37
2022/04/14 07:17:07;;;;;;;16.55;10.20;;;;;;;19.49;50.21;102233.53;5051164;28;20058;-37
2022/04/14 07:19:33;;;;;;;20.05;10.43;;;;;;;19.50;49.95;102234.44;5051717;28;20056;-37
2022/04/14 07:22:02;;;;;;;16.42;9.93;;;;;;;19.52;50.50;102235.13;5052714;28;20095;-37
2022/04/14 07:24:28;;;;;;;14.68;9.50;;;;;;;19.53;50.46;102242.22;5050053;28;20199;-37
2022/04/14 07:26:55;;;;;;;15.68;9.40;;;;;;;19.55;50.02;102234.88;5048660;28;20049;-37
2022/04/14 07:29:21;;;;;;;14.18;8.45;;;;;;;19.57;50.02;102240.13;5050134;28;20055;-37
2022/04/14 07:31:49;;;;;;;15.68;9.50;;;;;;;19.60;49.97;102237.19;5047663;28;20055;-37
2022/04/14 07:34:16;;;;;;;14.93;8.70;;;;;;;19.61;49.79;102238.88;5049412;28;20597;-37
2022/04/14 07:36:42;;;;;;;14.80;8.48;;;;;;;19.62;49.53;102244.19;5048185;28;20397;-37
2022/04/14 07:39:09;;;;;;;16.05;8.95;;;;;;;19.63;50.27;102237.81;5049339;28;20047;-37
2022/04/14 07:41:36;;;;;;;14.00;7.82;;;;;;;19.63;50.20;102235.13;5049871;28;20065;-37
2022/04/14 07:44:04;;;;;;;10.98;7.82;;;;;;;19.65;50.12;102232.28;5047991;28;20167;-37
2022/04/14 07:46:30;;;;;;;13.77;7.78;;;;;;;19.66;49.76;102247.47;5051125;28;20045;-37
2022/04/14 07:48:57;;;;;;;11.13;7.18;;;;;;;19.66;50.09;102242.94;5051589;28;20044;-37
2022/04/14 07:51:23;;;;;;;12.13;7.30;;;;;;;19.67;49.75;102243.78;5050335;28;20127;-37
2022/04/14 07:53:51;;;;;;;12.05;7.65;;;;;;;19.69;50.10;102252.56;5046189;28;20496;-37
2022/04/14 07:56:22;;;;;;;11.63;7.13;;;;;;;19.70;50.27;102248.91;5050093;28;20183;-37
2022/04/14 07:58:50;;;;;;;12.32;7.10;;;;;;;19.70;50.24;102247.06;5047770;28;20123;-37
2022/04/14 08:01:18;;;;;;;11.70;7.07;;;;;;;19.71;49.79;102256.00;5051164;28;20049;-37
2022/04/14 08:03:46;;;;;;;14.38;7.25;;;;;;;19.72;49.83;102253.16;5049353;28;20063;-37
2022/04/14 08:06:14;;;;;;;9.57;6.15;;;;;;;19.73;50.33;102257.53;5050509;28;20043;-37
2022/04/14 08:08:40;;;;;;;10.50;6.47;;;;;;;19.74;50.10;102255.75;5047123;28;20041;-37
2022/04/14 08:11:09;;;;;;;12.00;7.13;;;;;;;19.75;49.82;102253.91;5047292;28;20113;-37
2022/04/14 08:13:38;;;;;;;11.40;6.55;;;;;;;19.75;50.03;102252.06;5050063;28;20041;-37
2022/04/14 08:16:06;;;;;;;11.90;6.63;;;;;;;19.77;50.36;102249.22;5049055;28;20041;-38
2022/04/14 08:18:34;;;;;;;10.45;5.72;;;;;;;19.79;50.25;102252.66;5050197;28;20044;-38
2022/04/14 08:21:01;;;;;;;9.93;5.68;;;;;;;19.78;50.23;102249.09;5050864;28;20064;-37
2022/04/14 08:23:28;;;;;;;8.77;5.43;;;;;;;19.80;50.69;102254.34;5048870;28;20416;-37
2022/04/14 08:25:54;;;;;;;10.32;6.20;;;;;;;19.82;50.25;102260.44;5050851;28;20123;-36
2022/04/14 08:28:41;;;;;;;10.18;5.38;;;;;;;19.82;50.65;102255.94;5048996;28;20040;-37
2022/04/14 08:31:09;;;;;;;9.30;5.07;;;;;;;19.84;50.62;102253.94;5047114;28;20151;-37
2022/04/14 08:33:37;;;;;;;11.18;5.18;;;;;;;19.85;50.47;102255.66;5046294;28;20412;-37
2022/04/14 08:36:07;;;;;;;9.13;5.32;;;;;;;19.86;50.18;102264.56;5050921;28;20785;-38
2022/04/14 08:38:34;;;;;;;8.48;4.90;;;;;;;19.87;50.47;102260.91;5049222;28;20152;-38
2022/04/14 08:41:05;;;;;;;6.97;4.68;;;;;;;19.89;50.65;102253.56;5047630;28;20045;-37
2022/04/14 08:43:51;;;;;;;9.75;5.47;;;;;;;19.90;50.15;102249.88;5045870;28;20057;-37
2022/04/14 08:46:19;;;;;;;7.85;4.70;;;;;;;19.92;50.73;102243.38;5047639;28;20136;-37
2022/04/14 08:48:51;;;;;;;7.68;5.10;;;;;;;19.93;50.14;102239.69;5048872;28;20594;-37
2022/04/14 08:51:22;;;;;;;7.45;4.40;;;;;;;19.94;50.05;102236.03;5049656;28;20148;-37
2022/04/14 08:53:49;;;;;;;8.25;4.45;;;;;;;19.97;50.55;102235.75;5048501;28;20385;-38
2022/04/14 08:56:23;;;;;;;8.80;4.90;;;;;;;19.99;50.34;102237.50;5050221;28;20076;-37
2022/04/14 08:58:53;;;;;;;8.05;4.55;;;;;;;20.01;50.27;102230.13;5048034;28;20053;-37
2022/04/14 09:01:21;;;;;;;8.27;4.88;;;;;;;20.02;50.57;102221.03;5053329;28;20206;-38
2022/04/14 09:03:55;;;;;;;8.23;4.20;;;;;;;20.05;50.74;102231.56;5054584;28;20442;-38
2022/04/14 09:06:24;;;;;;;6.38;3.95;;;;;;;20.06;50.32;102223.38;5054357;28;20041;-38
2022/04/14 09:08:50;;;;;;;7.45;4.07;;;;;;;20.07;50.70;102227.75;5053319;28;20185;-40
2022/04/14 09:11:18;;;;;;;8.55;4.53;;;;;;;20.08;50.87;102232.16;5053671;28;20139;-37
2022/04/14 09:13:46;;;;;;;6.40;3.90;;;;;;;20.11;50.25;102231.03;5052269;28;20144;-37
2022/04/14 09:16:13;;;;;;;7.30;4.18;;;;;;;20.12;50.15;102238.97;5052933;28;20132;-38
2022/04/14 09:18:40;;;;;;;8.00;4.13;;;;;;;20.15;50.20;102236.00;5053541;28;20301;-37
2022/04/14 09:21:07;;;;;;;9.35;4.20;;;;;;;20.17;50.57;102242.09;5055437;28;20045;-37
2022/04/14 09:23:36;;;;;;;8.98;3.83;;;;;;;20.19;49.94;102242.00;5052333;28;20057;-38
2022/04/14 09:26:02;;;;;;;7.75;3.78;;;;;;;20.23;50.38;102237.19;5050705;28;20045;-38
2022/04/14 09:28:30;;;;;;;5.65;3.95;;;;;;;20.25;49.95;102238.75;5051117;28;20128;-38
2022/04/14 09:31:06;;;;;;;7.15;3.97;;;;;;;20.28;49.99;102237.63;5052129;28;20152;-38
2022/04/14 09:33:35;;;;;;;7.47;3.70;;;;;;;20.32;49.86;102239.91;5053674;28;20058;-38
2022/04/14 09:36:09;;;;;;;7.15;3.25;;;;;;;20.35;49.78;102247.72;5052884;28;20107;-38
2022/04/14 09:38:49;;;;;;;5.32;3.50;;;;;;;20.39;49.96;102251.00;5050970;28;20059;-38
2022/04/14 09:41:39;;;;;;;5.38;3.50;;;;;;;20.42;49.79;102251.59;5054458;28;20039;-38
2022/04/14 09:44:10;;;;;;;8.98;3.63;;;;;;;20.47;49.91;102253.88;5052856;28;20044;-38
2022/04/14 09:46:38;;;;;;;5.78;3.05;;;;;;;20.51;49.82;102259.88;5053808;28;20076;-38
2022/04/14 09:49:11;;;;;;;4.75;2.90;;;;;;;20.55;49.82;102267.56;5052615;28;20045;-38
2022/04/14 09:51:42;;;;;;;6.28;3.45;;;;;;;20.59;49.63;102271.69;5054303;28;20562;-39
2022/04/14 09:54:13;;;;;;;6.72;3.20;;;;;;;20.62;49.41;102274.13;5049405;28;20049;-38
2022/04/14 09:56:51;;;;;;;8.40;3.22;;;;;;;20.67;49.66;102268.31;5051294;28;20077;-39
2022/04/14 09:59:20;;;;;;;11.88;4.40;;;;;;;20.70;49.96;102282.38;5052889;28;20049;-38
2022/04/14 10:01:48;;;;;;;11.00;3.60;;;;;;;20.73;49.29;102275.00;5051582;28;20131;-38
2022/04/14 10:04:35;;;;;;;13.43;3.63;;;;;;;20.75;49.10;102267.63;5053801;28;20090;-38
2022/04/14 10:07:10;;;;;;;11.57;4.00;;;;;;;20.78;49.69;102275.41;5052557;28;20677;-38
2022/04/14 10:09:42;;;;;;;21.02;4.40;;;;;;;20.80;49.24;102270.75;5052713;28;20049;-39
2022/04/14 10:12:17;;;;;;;18.00;4.57;;;;;;;20.82;49.37;102280.41;5050286;28;20137;-39
2022/04/14 10:14:57;;;;;;;18.33;4.78;;;;;;;20.85;49.34;102272.03;5049581;28;20041;-39
2022/04/14 10:17:25;;;;;;;20.83;5.82;;;;;;;20.89;49.60;102273.47;5052159;28;20483;-38
2022/04/14 10:19:53;;;;;;;17.27;5.38;;;;;;;20.90;49.37;102267.13;5051941;28;20088;-41
2022/04/14 10:22:19;;;;;;;20.23;4.82;;;;;;;20.93;49.47;102263.28;5048951;28;20371;-39
2022/04/14 10:24:47;;;;;;;18.45;4.93;;;;;;;20.97;49.53;102266.53;5048788;28;20123;-39
2022/04/14 10:27:15;;;;;;;16.45;4.63;;;;;;;20.98;49.45;102266.41;5048403;28;20139;-40
2022/04/14 10:29:41;;;;;;;14.10;4.82;;;;;;;21.01;49.21;102267.97;5051021;28;20469;-38
2022/04/14 10:32:08;;;;;;;21.08;5.43;;;;;;;21.02;49.52;102267.81;5052948;28;20133;-39
2022/04/14 10:34:34;;;;;;;15.65;4.53;;;;;;;21.05;49.38;102278.34;5052816;28;20044;-39
2022/04/14 10:37:04;;;;;;;16.05;4.70;;;;;;;21.07;49.52;102267.44;5050235;28;20131;-38
2022/04/14 10:39:44;;;;;;;13.95;4.68;;;;;;;21.09;49.03;102268.13;5051868;28;20047;-38
2022/04/14 10:42:12;;;;;;;18.58;4.93;;;;;;;21.12;49.17;102271.41;5050478;28;20067;-38
2022/04/14 10:44:50;;;;;;;13.85;4.30;;;;;;;21.13;48.91;102283.88;5050904;28;20328;-38
2022/04/14 10:47:51;;;;;;;10.73;3.80;;;;;;;21.14;49.21;102274.78;5048917;28;20039;-38
2022/04/14 10:50:26;;;;;;;13.10;4.47;;;;;;;21.16;49.22;102277.38;5051000;28;20456;-39
2022/04/14 10:53:13;;;;;;;11.07;4.47;;;;;;;21.16;49.14;102271.97;5049208;28;20051;-40
2022/04/14 10:55:42;;;;;;;16.02;4.82;;;;;;;21.17;49.17;102270.97;5053385;28;20390;-39
2022/04/14 10:58:36;;;;;;;9.00;4.00;;;;;;;21.15;49.16;102273.81;5052128;28;20041;-39
2022/04/14 11:01:03;;;;;;;7.75;3.65;;;;;;;21.16;49.23;102266.59;5048909;28;20124;-40
2022/04/14 11:03:55;;;;;;;8.00;4.07;;;;;;;21.16;49.22;102266.59;5052428;28;20048;-39
2022/04/14 11:06:40;;;;;;;9.32;3.60;;;;;;;21.18;49.26;102270.81;5052413;28;20049;-40
2022/04/14 11:09:38;;;;;;;10.27;3.60;;;;;;;21.20;49.23;102274.25;5051286;28;20056;-39
2022/04/14 11:12:27;;;;;;;8.10;3.53;;;;;;;21.25;48.81;102276.53;5048277;28;20044;-40
2022/04/14 11:15:01;;;;;;;7.50;3.30;;;;;;;21.28;48.85;102280.78;5045091;28;20045;-39
2022/04/14 11:17:33;;;;;;;10.20;3.80;;;;;;;21.30;49.07;102278.78;5052410;28;20420;-38
2022/04/14 11:20:23;;;;;;;12.23;3.30;;;;;;;21.32;49.00;102274.13;5049247;28;20049;-37
2022/04/14 11:23:32;;;;;;;8.20;2.92;;;;;;;21.33;48.81;102271.31;5053333;28;20136;-38
2022/04/14 11:26:04;;;;;;;7.20;3.20;;;;;;;21.36;48.76;102262.09;5029680;28;20072;-39
2022/04/14 11:28:33;;;;;;;7.40;3.55;;;;;;;21.36;48.77;102259.41;5050638;28;20115;-39